Terminal Aerodrome Forecast
Issued by NWS Jackson, KY

Home | Current Version | Previous Version | Text Only | Print | Product List | Glossary On
Versions: 1 2 3 4 5 6 7 8 9 10 11 12 13
000
FTUS43 KJKL 281100
TAFJKL
TAF
KJKL 281139Z 2812/2912 VRB03KT 1/4SM -RA FG OVC003
     FM281400 30004KT 2SM -RA BR BKN003 OVC008
     FM290300 36003KT 1/2SM -RA FG OVC003=

USA.gov is the U.S. government's official web portal to all federal, state and local government web resources and services.